sensor_id;sensor_type;location;lat;lon;timestamp;P1;durP1;ratioP1;P2;durP2;ratioP2
56567;SDS011;42456;49.956;20.004;2023-03-31T00:00:43;11.80;;;6.30;;
56567;SDS011;42456;49.956;20.004;2023-03-31T00:03:12;11.00;;;5.60;;
56567;SDS011;42456;49.956;20.004;2023-03-31T00:05:48;12.10;;;5.80;;
56567;SDS011;42456;49.956;20.004;2023-03-31T00:08:18;12.20;;;6.30;;
56567;SDS011;42456;49.956;20.004;2023-03-31T00:10:46;14.60;;;6.20;;
56567;SDS011;42456;49.956;20.004;2023-03-31T00:13:13;13.50;;;6.20;;
56567;SDS011;42456;49.956;20.004;2023-03-31T00:15:40;12.00;;;5.90;;
56567;SDS011;42456;49.956;20.004;2023-03-31T00:18:07;9.70;;;5.60;;
56567;SDS011;42456;49.956;20.004;2023-03-31T00:20:34;17.60;;;6.30;;
56567;SDS011;42456;49.956;20.004;2023-03-31T00:23:03;14.50;;;5.80;;
56567;SDS011;42456;49.956;20.004;2023-03-31T00:25:39;11.90;;;6.20;;
56567;SDS011;42456;49.956;20.004;2023-03-31T00:28:07;12.20;;;5.70;;
56567;SDS011;42456;49.956;20.004;2023-03-31T00:30:34;12.70;;;6.20;;
56567;SDS011;42456;49.956;20.004;2023-03-31T00:33:01;11.90;;;5.90;;
56567;SDS011;42456;49.956;20.004;2023-03-31T00:35:28;10.00;;;5.80;;
56567;SDS011;42456;49.956;20.004;2023-03-31T00:37:56;12.60;;;6.10;;
56567;SDS011;42456;49.956;20.004;2023-03-31T00:40:23;13.50;;;6.80;;
56567;SDS011;42456;49.956;20.004;2023-03-31T00:42:50;11.10;;;6.40;;
56567;SDS011;42456;49.956;20.004;2023-03-31T00:45:21;11.50;;;6.30;;
56567;SDS011;42456;49.956;20.004;2023-03-31T00:47:54;13.40;;;6.30;;
56567;SDS011;42456;49.956;20.004;2023-03-31T00:50:24;14.90;;;6.00;;
56567;SDS011;42456;49.956;20.004;2023-03-31T00:52:55;13.20;;;6.00;;
56567;SDS011;42456;49.956;20.004;2023-03-31T00:55:33;14.10;;;6.50;;
56567;SDS011;42456;49.956;20.004;2023-03-31T00:58:03;13.30;;;6.70;;
56567;SDS011;42456;49.956;20.004;2023-03-31T01:00:32;11.60;;;6.50;;
56567;SDS011;42456;49.956;20.004;2023-03-31T01:03:04;13.30;;;7.00;;
56567;SDS011;42456;49.956;20.004;2023-03-31T01:08:08;11.10;;;6.10;;
56567;SDS011;42456;49.956;20.004;2023-03-31T01:10:38;10.90;;;6.30;;
56567;SDS011;42456;49.956;20.004;2023-03-31T01:13:08;16.20;;;6.00;;
56567;SDS011;42456;49.956;20.004;2023-03-31T01:15:37;10.00;;;6.00;;
56567;SDS011;42456;49.956;20.004;2023-03-31T01:18:05;13.50;;;6.20;;
56567;SDS011;42456;49.956;20.004;2023-03-31T01:31:25;10.30;;;5.70;;
56567;SDS011;42456;49.956;20.004;2023-03-31T01:44:45;9.50;;;5.00;;
56567;SDS011;42456;49.956;20.004;2023-03-31T01:55:38;9.70;;;4.60;;
56567;SDS011;42456;49.956;20.004;2023-03-31T01:58:41;8.60;;;4.50;;
56567;SDS011;42456;49.956;20.004;2023-03-31T02:01:18;9.60;;;4.40;;
56567;SDS011;42456;49.956;20.004;2023-03-31T02:03:52;9.70;;;5.10;;
56567;SDS011;42456;49.956;20.004;2023-03-31T02:06:27;8.10;;;4.80;;
56567;SDS011;42456;49.956;20.004;2023-03-31T02:09:01;7.80;;;4.00;;
56567;SDS011;42456;49.956;20.004;2023-03-31T02:11:32;9.90;;;4.90;;
56567;SDS011;42456;49.956;20.004;2023-03-31T02:14:00;9.90;;;5.10;;
56567;SDS011;42456;49.956;20.004;2023-03-31T02:16:30;7.10;;;4.20;;
56567;SDS011;42456;49.956;20.004;2023-03-31T02:19:01;9.90;;;4.50;;
56567;SDS011;42456;49.956;20.004;2023-03-31T02:21:31;13.60;;;5.50;;
56567;SDS011;42456;49.956;20.004;2023-03-31T02:24:03;8.10;;;4.50;;
56567;SDS011;42456;49.956;20.004;2023-03-31T02:26:35;8.10;;;4.10;;
56567;SDS011;42456;49.956;20.004;2023-03-31T02:29:06;13.80;;;4.70;;
56567;SDS011;42456;49.956;20.004;2023-03-31T02:34:09;6.70;;;3.80;;
56567;SDS011;42456;49.956;20.004;2023-03-31T02:36:36;7.40;;;4.00;;
56567;SDS011;42456;49.956;20.004;2023-03-31T02:39:05;8.20;;;4.20;;
56567;SDS011;42456;49.956;20.004;2023-03-31T02:41:34;6.80;;;4.00;;
56567;SDS011;42456;49.956;20.004;2023-03-31T02:44:02;6.80;;;3.90;;
56567;SDS011;42456;49.956;20.004;2023-03-31T02:46:29;6.80;;;3.70;;
56567;SDS011;42456;49.956;20.004;2023-03-31T02:48:58;7.20;;;3.50;;
56567;SDS011;42456;49.956;20.004;2023-03-31T02:57:02;7.90;;;3.70;;
56567;SDS011;42456;49.956;20.004;2023-03-31T03:02:59;6.60;;;3.20;;
56567;SDS011;42456;49.956;20.004;2023-03-31T03:16:09;6.70;;;3.30;;
56567;SDS011;42456;49.956;20.004;2023-03-31T03:18:51;7.00;;;3.60;;
56567;SDS011;42456;49.956;20.004;2023-03-31T03:21:29;7.90;;;3.60;;
56567;SDS011;42456;49.956;20.004;2023-03-31T03:23:56;5.60;;;3.10;;
56567;SDS011;42456;49.956;20.004;2023-03-31T03:26:25;5.50;;;3.00;;
56567;SDS011;42456;49.956;20.004;2023-03-31T03:28:54;4.90;;;2.90;;
56567;SDS011;42456;49.956;20.004;2023-03-31T03:31:22;5.00;;;2.90;;
56567;SDS011;42456;49.956;20.004;2023-03-31T03:33:52;5.20;;;3.00;;
56567;SDS011;42456;49.956;20.004;2023-03-31T03:36:19;6.20;;;3.00;;
56567;SDS011;42456;49.956;20.004;2023-03-31T03:38:46;4.80;;;2.80;;
56567;SDS011;42456;49.956;20.004;2023-03-31T03:41:13;5.50;;;3.00;;
56567;SDS011;42456;49.956;20.004;2023-03-31T03:43:39;6.20;;;3.00;;
56567;SDS011;42456;49.956;20.004;2023-03-31T03:46:06;6.40;;;3.00;;
56567;SDS011;42456;49.956;20.004;2023-03-31T03:48:33;4.10;;;2.80;;
56567;SDS011;42456;49.956;20.004;2023-03-31T03:51:01;5.10;;;2.90;;
56567;SDS011;42456;49.956;20.004;2023-03-31T03:53:28;5.80;;;3.00;;
56567;SDS011;42456;49.956;20.004;2023-03-31T03:55:54;6.50;;;3.00;;
56567;SDS011;42456;49.956;20.004;2023-03-31T03:58:22;4.50;;;2.70;;
56567;SDS011;42456;49.956;20.004;2023-03-31T04:00:49;5.20;;;2.60;;
56567;SDS011;42456;49.956;20.004;2023-03-31T04:03:16;4.80;;;3.00;;
56567;SDS011;42456;49.956;20.004;2023-03-31T04:05:42;5.10;;;3.60;;
56567;SDS011;42456;49.956;20.004;2023-03-31T04:08:09;4.40;;;2.80;;
56567;SDS011;42456;49.956;20.004;2023-03-31T04:10:36;5.10;;;3.30;;
56567;SDS011;42456;49.956;20.004;2023-03-31T04:13:03;6.90;;;3.30;;
56567;SDS011;42456;49.956;20.004;2023-03-31T04:15:29;6.80;;;3.60;;
56567;SDS011;42456;49.956;20.004;2023-03-31T04:17:56;7.30;;;3.70;;
56567;SDS011;42456;49.956;20.004;2023-03-31T04:20:24;8.20;;;3.50;;
56567;SDS011;42456;49.956;20.004;2023-03-31T04:22:56;6.60;;;4.00;;
56567;SDS011;42456;49.956;20.004;2023-03-31T04:25:23;9.10;;;4.10;;
56567;SDS011;42456;49.956;20.004;2023-03-31T04:27:50;9.00;;;3.90;;
56567;SDS011;42456;49.956;20.004;2023-03-31T04:30:24;8.90;;;4.10;;
56567;SDS011;42456;49.956;20.004;2023-03-31T04:32:57;7.40;;;3.90;;
56567;SDS011;42456;49.956;20.004;2023-03-31T04:35:27;6.70;;;3.90;;
56567;SDS011;42456;49.956;20.004;2023-03-31T04:38:08;11.50;;;5.00;;
56567;SDS011;42456;49.956;20.004;2023-03-31T04:40:35;6.90;;;4.20;;
56567;SDS011;42456;49.956;20.004;2023-03-31T04:43:02;6.10;;;3.60;;
56567;SDS011;42456;49.956;20.004;2023-03-31T04:45:29;8.50;;;4.20;;
56567;SDS011;42456;49.956;20.004;2023-03-31T04:47:55;7.20;;;4.00;;
56567;SDS011;42456;49.956;20.004;2023-03-31T04:50:22;5.80;;;3.30;;
56567;SDS011;42456;49.956;20.004;2023-03-31T04:52:49;6.70;;;3.90;;
56567;SDS011;42456;49.956;20.004;2023-03-31T04:55:16;6.80;;;4.20;;
56567;SDS011;42456;49.956;20.004;2023-03-31T04:57:43;7.20;;;4.00;;
56567;SDS011;42456;49.956;20.004;2023-03-31T05:00:10;8.40;;;4.10;;
56567;SDS011;42456;49.956;20.004;2023-03-31T05:02:38;8.60;;;4.40;;
56567;SDS011;42456;49.956;20.004;2023-03-31T05:05:05;9.40;;;3.90;;
56567;SDS011;42456;49.956;20.004;2023-03-31T05:07:32;8.90;;;4.40;;
56567;SDS011;42456;49.956;20.004;2023-03-31T05:09:59;9.80;;;4.20;;
56567;SDS011;42456;49.956;20.004;2023-03-31T05:12:26;8.70;;;4.30;;
56567;SDS011;42456;49.956;20.004;2023-03-31T05:14:53;7.60;;;4.10;;
56567;SDS011;42456;49.956;20.004;2023-03-31T05:17:19;7.40;;;4.00;;
56567;SDS011;42456;49.956;20.004;2023-03-31T05:19:46;7.10;;;3.50;;
56567;SDS011;42456;49.956;20.004;2023-03-31T05:22:14;6.40;;;3.30;;
56567;SDS011;42456;49.956;20.004;2023-03-31T05:24:46;5.30;;;3.20;;
56567;SDS011;42456;49.956;20.004;2023-03-31T05:27:13;6.50;;;3.40;;
56567;SDS011;42456;49.956;20.004;2023-03-31T05:29:41;6.80;;;3.60;;
56567;SDS011;42456;49.956;20.004;2023-03-31T05:32:08;7.90;;;3.90;;
56567;SDS011;42456;49.956;20.004;2023-03-31T05:34:35;7.20;;;3.70;;
56567;SDS011;42456;49.956;20.004;2023-03-31T05:37:03;8.40;;;3.60;;
56567;SDS011;42456;49.956;20.004;2023-03-31T05:39:30;8.40;;;4.00;;
56567;SDS011;42456;49.956;20.004;2023-03-31T05:41:58;5.80;;;3.30;;
56567;SDS011;42456;49.956;20.004;2023-03-31T05:44:29;5.20;;;3.10;;
56567;SDS011;42456;49.956;20.004;2023-03-31T05:46:56;6.10;;;3.60;;
56567;SDS011;42456;49.956;20.004;2023-03-31T05:49:23;5.60;;;3.50;;
56567;SDS011;42456;49.956;20.004;2023-03-31T05:51:50;7.20;;;3.60;;
56567;SDS011;42456;49.956;20.004;2023-03-31T05:54:17;6.70;;;3.40;;
56567;SDS011;42456;49.956;20.004;2023-03-31T05:56:44;7.00;;;3.20;;
56567;SDS011;42456;49.956;20.004;2023-03-31T05:59:11;5.70;;;3.10;;
56567;SDS011;42456;49.956;20.004;2023-03-31T06:01:40;5.40;;;3.00;;
56567;SDS011;42456;49.956;20.004;2023-03-31T06:04:07;5.60;;;3.00;;
56567;SDS011;42456;49.956;20.004;2023-03-31T06:06:34;7.00;;;2.80;;
56567;SDS011;42456;49.956;20.004;2023-03-31T06:09:03;5.50;;;3.00;;
56567;SDS011;42456;49.956;20.004;2023-03-31T06:11:31;5.60;;;3.00;;
56567;SDS011;42456;49.956;20.004;2023-03-31T06:13:58;8.50;;;3.50;;
56567;SDS011;42456;49.956;20.004;2023-03-31T06:16:25;6.00;;;3.10;;
56567;SDS011;42456;49.956;20.004;2023-03-31T06:18:54;6.00;;;3.10;;
56567;SDS011;42456;49.956;20.004;2023-03-31T06:21:21;5.10;;;2.90;;
56567;SDS011;42456;49.956;20.004;2023-03-31T06:23:48;5.90;;;3.30;;
56567;SDS011;42456;49.956;20.004;2023-03-31T06:26:20;5.20;;;2.70;;
56567;SDS011;42456;49.956;20.004;2023-03-31T06:28:48;7.70;;;3.00;;
56567;SDS011;42456;49.956;20.004;2023-03-31T06:31:16;4.10;;;2.60;;
56567;SDS011;42456;49.956;20.004;2023-03-31T06:33:45;5.50;;;2.90;;
56567;SDS011;42456;49.956;20.004;2023-03-31T06:36:14;3.70;;;2.70;;
56567;SDS011;42456;49.956;20.004;2023-03-31T06:38:43;4.40;;;2.60;;
56567;SDS011;42456;49.956;20.004;2023-03-31T06:41:11;6.30;;;2.80;;
56567;SDS011;42456;49.956;20.004;2023-03-31T06:43:40;6.10;;;2.80;;
56567;SDS011;42456;49.956;20.004;2023-03-31T06:46:07;3.90;;;3.00;;
56567;SDS011;42456;49.956;20.004;2023-03-31T06:48:35;7.80;;;2.70;;
56567;SDS011;42456;49.956;20.004;2023-03-31T06:51:03;4.30;;;2.70;;
56567;SDS011;42456;49.956;20.004;2023-03-31T06:53:31;6.80;;;3.10;;
56567;SDS011;42456;49.956;20.004;2023-03-31T06:55:59;4.70;;;2.40;;
56567;SDS011;42456;49.956;20.004;2023-03-31T06:58:26;5.90;;;2.80;;
56567;SDS011;42456;49.956;20.004;2023-03-31T07:00:57;5.10;;;2.90;;
56567;SDS011;42456;49.956;20.004;2023-03-31T07:03:24;5.20;;;2.80;;
56567;SDS011;42456;49.956;20.004;2023-03-31T07:05:52;4.50;;;2.70;;
56567;SDS011;42456;49.956;20.004;2023-03-31T07:08:20;4.70;;;2.60;;
56567;SDS011;42456;49.956;20.004;2023-03-31T07:10:48;2.90;;;2.50;;
56567;SDS011;42456;49.956;20.004;2023-03-31T07:13:19;7.80;;;2.90;;
56567;SDS011;42456;49.956;20.004;2023-03-31T07:15:46;7.00;;;2.60;;
56567;SDS011;42456;49.956;20.004;2023-03-31T07:18:15;5.00;;;2.30;;
56567;SDS011;42456;49.956;20.004;2023-03-31T07:20:43;4.40;;;2.60;;
56567;SDS011;42456;49.956;20.004;2023-03-31T07:23:14;5.90;;;2.60;;
56567;SDS011;42456;49.956;20.004;2023-03-31T07:25:41;4.60;;;2.20;;
56567;SDS011;42456;49.956;20.004;2023-03-31T07:28:08;5.00;;;2.20;;
56567;SDS011;42456;49.956;20.004;2023-03-31T07:30:35;5.20;;;2.10;;
56567;SDS011;42456;49.956;20.004;2023-03-31T07:33:02;5.30;;;2.40;;
56567;SDS011;42456;49.956;20.004;2023-03-31T07:35:31;7.10;;;2.40;;
56567;SDS011;42456;49.956;20.004;2023-03-31T07:37:58;5.60;;;2.30;;
56567;SDS011;42456;49.956;20.004;2023-03-31T07:40:26;3.00;;;2.10;;
56567;SDS011;42456;49.956;20.004;2023-03-31T07:42:58;4.80;;;2.30;;
56567;SDS011;42456;49.956;20.004;2023-03-31T07:47:52;4.40;;;2.40;;
56567;SDS011;42456;49.956;20.004;2023-03-31T07:50:20;4.90;;;2.50;;
56567;SDS011;42456;49.956;20.004;2023-03-31T07:52:49;4.60;;;2.40;;
56567;SDS011;42456;49.956;20.004;2023-03-31T07:55:17;5.50;;;2.50;;
56567;SDS011;42456;49.956;20.004;2023-03-31T07:57:45;5.00;;;2.60;;
56567;SDS011;42456;49.956;20.004;2023-03-31T08:00:14;4.70;;;2.30;;
56567;SDS011;42456;49.956;20.004;2023-03-31T08:02:42;5.10;;;2.30;;
56567;SDS011;42456;49.956;20.004;2023-03-31T08:05:10;5.00;;;2.30;;
56567;SDS011;42456;49.956;20.004;2023-03-31T08:07:39;3.10;;;2.30;;
56567;SDS011;42456;49.956;20.004;2023-03-31T08:10:09;4.30;;;2.60;;
56567;SDS011;42456;49.956;20.004;2023-03-31T08:12:39;4.90;;;2.50;;
56567;SDS011;42456;49.956;20.004;2023-03-31T08:15:06;7.60;;;2.50;;
56567;SDS011;42456;49.956;20.004;2023-03-31T08:17:34;3.90;;;2.20;;
56567;SDS011;42456;49.956;20.004;2023-03-31T08:20:04;3.80;;;2.10;;
56567;SDS011;42456;49.956;20.004;2023-03-31T08:22:33;4.30;;;2.40;;
56567;SDS011;42456;49.956;20.004;2023-03-31T08:25:00;5.50;;;2.60;;
56567;SDS011;42456;49.956;20.004;2023-03-31T08:27:27;3.50;;;2.30;;
56567;SDS011;42456;49.956;20.004;2023-03-31T08:29:54;3.80;;;2.30;;
56567;SDS011;42456;49.956;20.004;2023-03-31T08:32:22;6.60;;;3.40;;
56567;SDS011;42456;49.956;20.004;2023-03-31T08:34:50;6.30;;;3.30;;
56567;SDS011;42456;49.956;20.004;2023-03-31T08:37:17;4.60;;;2.60;;
56567;SDS011;42456;49.956;20.004;2023-03-31T08:39:44;5.50;;;2.50;;
56567;SDS011;42456;49.956;20.004;2023-03-31T08:45:02;4.50;;;2.00;;
56567;SDS011;42456;49.956;20.004;2023-03-31T08:47:36;4.80;;;2.30;;
56567;SDS011;42456;49.956;20.004;2023-03-31T08:50:06;3.90;;;2.10;;
56567;SDS011;42456;49.956;20.004;2023-03-31T08:52:47;7.20;;;2.20;;
56567;SDS011;42456;49.956;20.004;2023-03-31T08:55:24;4.20;;;2.00;;
56567;SDS011;42456;49.956;20.004;2023-03-31T08:57:59;4.90;;;2.30;;
56567;SDS011;42456;49.956;20.004;2023-03-31T09:00:35;4.60;;;2.10;;
56567;SDS011;42456;49.956;20.004;2023-03-31T09:03:28;3.40;;;2.00;;
56567;SDS011;42456;49.956;20.004;2023-03-31T09:06:06;8.10;;;2.00;;
56567;SDS011;42456;49.956;20.004;2023-03-31T09:08:40;6.30;;;2.00;;
56567;SDS011;42456;49.956;20.004;2023-03-31T09:13:55;3.10;;;1.70;;
56567;SDS011;42456;49.956;20.004;2023-03-31T09:19:35;4.70;;;2.10;;
56567;SDS011;42456;49.956;20.004;2023-03-31T09:22:10;4.70;;;1.80;;
56567;SDS011;42456;49.956;20.004;2023-03-31T09:24:49;3.20;;;1.90;;
56567;SDS011;42456;49.956;20.004;2023-03-31T09:27:21;5.60;;;1.70;;
56567;SDS011;42456;49.956;20.004;2023-03-31T09:32:41;3.80;;;2.10;;
56567;SDS011;42456;49.956;20.004;2023-03-31T09:35:42;6.40;;;1.90;;
56567;SDS011;42456;49.956;20.004;2023-03-31T09:38:01;4.50;;;1.70;;
56567;SDS011;42456;49.956;20.004;2023-03-31T09:40:28;3.30;;;1.60;;
56567;SDS011;42456;49.956;20.004;2023-03-31T09:43:00;5.00;;;1.70;;
56567;SDS011;42456;49.956;20.004;2023-03-31T09:45:50;3.90;;;1.80;;
56567;SDS011;42456;49.956;20.004;2023-03-31T09:48:38;3.50;;;1.60;;
56567;SDS011;42456;49.956;20.004;2023-03-31T09:51:13;3.70;;;1.70;;
56567;SDS011;42456;49.956;20.004;2023-03-31T09:53:51;4.70;;;1.90;;
56567;SDS011;42456;49.956;20.004;2023-03-31T10:01:48;3.30;;;1.40;;
56567;SDS011;42456;49.956;20.004;2023-03-31T10:04:22;3.50;;;1.60;;
56567;SDS011;42456;49.956;20.004;2023-03-31T10:06:51;4.10;;;2.00;;
56567;SDS011;42456;49.956;20.004;2023-03-31T10:09:20;5.50;;;1.80;;
56567;SDS011;42456;49.956;20.004;2023-03-31T10:12:01;4.20;;;1.90;;
56567;SDS011;42456;49.956;20.004;2023-03-31T10:14:32;4.10;;;1.70;;
56567;SDS011;42456;49.956;20.004;2023-03-31T10:17:01;3.20;;;1.60;;
56567;SDS011;42456;49.956;20.004;2023-03-31T10:19:32;4.00;;;1.60;;
56567;SDS011;42456;49.956;20.004;2023-03-31T10:22:03;3.70;;;1.80;;
56567;SDS011;42456;49.956;20.004;2023-03-31T10:24:36;4.10;;;1.70;;
56567;SDS011;42456;49.956;20.004;2023-03-31T10:27:17;3.30;;;1.70;;
56567;SDS011;42456;49.956;20.004;2023-03-31T10:29:50;2.70;;;1.90;;
56567;SDS011;42456;49.956;20.004;2023-03-31T10:32:26;3.10;;;1.50;;
56567;SDS011;42456;49.956;20.004;2023-03-31T10:34:55;3.60;;;1.80;;
56567;SDS011;42456;49.956;20.004;2023-03-31T10:37:25;6.00;;;1.70;;
56567;SDS011;42456;49.956;20.004;2023-03-31T10:42:45;5.00;;;1.90;;
56567;SDS011;42456;49.956;20.004;2023-03-31T10:48:02;3.80;;;1.50;;
56567;SDS011;42456;49.956;20.004;2023-03-31T10:50:33;4.30;;;1.40;;
56567;SDS011;42456;49.956;20.004;2023-03-31T10:53:12;3.80;;;1.50;;
56567;SDS011;42456;49.956;20.004;2023-03-31T10:55:44;3.10;;;1.50;;
56567;SDS011;42456;49.956;20.004;2023-03-31T10:59:03;4.30;;;1.30;;
56567;SDS011;42456;49.956;20.004;2023-03-31T11:09:48;4.00;;;1.40;;
56567;SDS011;42456;49.956;20.004;2023-03-31T11:12:23;3.10;;;1.70;;
56567;SDS011;42456;49.956;20.004;2023-03-31T11:15:16;3.00;;;1.50;;
56567;SDS011;42456;49.956;20.004;2023-03-31T11:23:03;4.20;;;1.70;;
56567;SDS011;42456;49.956;20.004;2023-03-31T11:25:57;3.00;;;1.40;;
56567;SDS011;42456;49.956;20.004;2023-03-31T11:41:50;3.20;;;1.60;;
56567;SDS011;42456;49.956;20.004;2023-03-31T11:44:34;5.60;;;1.50;;
56567;SDS011;42456;49.956;20.004;2023-03-31T11:47:07;4.20;;;1.40;;
56567;SDS011;42456;49.956;20.004;2023-03-31T11:49:42;3.50;;;1.60;;
56567;SDS011;42456;49.956;20.004;2023-03-31T11:55:06;4.10;;;1.40;;
56567;SDS011;42456;49.956;20.004;2023-03-31T11:57:45;4.70;;;1.50;;
56567;SDS011;42456;49.956;20.004;2023-03-31T12:05:25;2.80;;;1.60;;
56567;SDS011;42456;49.956;20.004;2023-03-31T12:10:36;4.70;;;1.80;;
56567;SDS011;42456;49.956;20.004;2023-03-31T12:15:51;3.40;;;1.70;;
56567;SDS011;42456;49.956;20.004;2023-03-31T12:18:54;3.20;;;2.10;;
56567;SDS011;42456;49.956;20.004;2023-03-31T12:21:22;3.10;;;1.40;;
56567;SDS011;42456;49.956;20.004;2023-03-31T12:23:52;3.60;;;1.90;;
56567;SDS011;42456;49.956;20.004;2023-03-31T12:26:29;6.10;;;1.80;;
56567;SDS011;42456;49.956;20.004;2023-03-31T12:29:13;3.90;;;2.40;;
56567;SDS011;42456;49.956;20.004;2023-03-31T12:31:54;4.20;;;1.80;;
56567;SDS011;42456;49.956;20.004;2023-03-31T12:34:25;4.10;;;1.70;;
56567;SDS011;42456;49.956;20.004;2023-03-31T12:37:19;6.60;;;1.90;;
56567;SDS011;42456;49.956;20.004;2023-03-31T12:54:36;2.80;;;1.30;;
56567;SDS011;42456;49.956;20.004;2023-03-31T12:59:36;5.00;;;1.80;;
56567;SDS011;42456;49.956;20.004;2023-03-31T13:02:16;6.90;;;1.60;;
56567;SDS011;42456;49.956;20.004;2023-03-31T13:04:50;3.30;;;1.60;;
56567;SDS011;42456;49.956;20.004;2023-03-31T13:07:38;5.10;;;2.00;;
56567;SDS011;42456;49.956;20.004;2023-03-31T13:12:40;7.80;;;2.40;;
56567;SDS011;42456;49.956;20.004;2023-03-31T13:15:11;6.30;;;2.30;;
56567;SDS011;42456;49.956;20.004;2023-03-31T13:17:40;3.40;;;2.10;;
56567;SDS011;42456;49.956;20.004;2023-03-31T13:23:13;6.50;;;2.00;;
56567;SDS011;42456;49.956;20.004;2023-03-31T13:25:51;5.20;;;2.10;;
56567;SDS011;42456;49.956;20.004;2023-03-31T13:31:04;2.80;;;1.60;;
56567;SDS011;42456;49.956;20.004;2023-03-31T13:33:34;4.60;;;1.90;;
56567;SDS011;42456;49.956;20.004;2023-03-31T13:39:14;4.30;;;1.90;;
56567;SDS011;42456;49.956;20.004;2023-03-31T13:45:02;2.70;;;1.40;;
56567;SDS011;42456;49.956;20.004;2023-03-31T14:02:41;6.20;;;2.00;;
56567;SDS011;42456;49.956;20.004;2023-03-31T14:05:03;9.20;;;2.10;;
56567;SDS011;42456;49.956;20.004;2023-03-31T14:07:45;6.10;;;2.00;;
56567;SDS011;42456;49.956;20.004;2023-03-31T14:15:46;4.70;;;1.90;;
56567;SDS011;42456;49.956;20.004;2023-03-31T14:18:23;5.50;;;1.80;;
56567;SDS011;42456;49.956;20.004;2023-03-31T14:23:33;5.30;;;1.80;;
56567;SDS011;42456;49.956;20.004;2023-03-31T14:28:56;6.00;;;1.80;;
56567;SDS011;42456;49.956;20.004;2023-03-31T14:37:25;3.70;;;1.60;;
56567;SDS011;42456;49.956;20.004;2023-03-31T14:39:53;3.70;;;1.80;;
56567;SDS011;42456;49.956;20.004;2023-03-31T14:42:37;4.50;;;1.70;;
56567;SDS011;42456;49.956;20.004;2023-03-31T14:45:25;3.80;;;1.70;;
56567;SDS011;42456;49.956;20.004;2023-03-31T14:50:43;3.40;;;2.00;;
56567;SDS011;42456;49.956;20.004;2023-03-31T14:53:14;2.20;;;1.40;;
56567;SDS011;42456;49.956;20.004;2023-03-31T14:55:43;3.50;;;1.30;;
56567;SDS011;42456;49.956;20.004;2023-03-31T14:58:35;4.60;;;1.50;;
56567;SDS011;42456;49.956;20.004;2023-03-31T15:01:05;3.10;;;1.50;;
56567;SDS011;42456;49.956;20.004;2023-03-31T15:03:38;3.00;;;1.60;;
56567;SDS011;42456;49.956;20.004;2023-03-31T15:06:07;6.10;;;2.30;;
56567;SDS011;42456;49.956;20.004;2023-03-31T15:08:35;2.80;;;2.00;;
56567;SDS011;42456;49.956;20.004;2023-03-31T15:11:03;4.60;;;2.30;;
56567;SDS011;42456;49.956;20.004;2023-03-31T15:13:43;4.10;;;2.20;;
56567;SDS011;42456;49.956;20.004;2023-03-31T15:16:39;5.00;;;2.50;;
56567;SDS011;42456;49.956;20.004;2023-03-31T15:24:44;6.10;;;2.90;;
56567;SDS011;42456;49.956;20.004;2023-03-31T15:27:17;8.30;;;3.40;;
56567;SDS011;42456;49.956;20.004;2023-03-31T15:29:52;6.80;;;3.20;;
56567;SDS011;42456;49.956;20.004;2023-03-31T15:32:26;10.10;;;3.90;;
56567;SDS011;42456;49.956;20.004;2023-03-31T15:35:22;9.10;;;4.00;;
56567;SDS011;42456;49.956;20.004;2023-03-31T15:37:53;7.90;;;3.90;;
56567;SDS011;42456;49.956;20.004;2023-03-31T15:40:56;9.10;;;4.00;;
56567;SDS011;42456;49.956;20.004;2023-03-31T15:43:28;7.90;;;3.90;;
56567;SDS011;42456;49.956;20.004;2023-03-31T15:45:57;6.60;;;3.30;;
56567;SDS011;42456;49.956;20.004;2023-03-31T15:51:23;9.00;;;3.80;;
56567;SDS011;42456;49.956;20.004;2023-03-31T15:59:04;7.20;;;3.00;;
56567;SDS011;42456;49.956;20.004;2023-03-31T16:01:32;8.10;;;3.70;;
56567;SDS011;42456;49.956;20.004;2023-03-31T16:04:11;11.20;;;5.30;;
56567;SDS011;42456;49.956;20.004;2023-03-31T16:06:41;11.20;;;4.40;;
56567;SDS011;42456;49.956;20.004;2023-03-31T16:09:38;11.00;;;3.90;;
56567;SDS011;42456;49.956;20.004;2023-03-31T16:12:18;13.90;;;5.60;;
56567;SDS011;42456;49.956;20.004;2023-03-31T16:15:15;12.20;;;4.30;;
56567;SDS011;42456;49.956;20.004;2023-03-31T16:17:53;8.10;;;4.10;;
56567;SDS011;42456;49.956;20.004;2023-03-31T16:20:36;10.60;;;4.70;;
56567;SDS011;42456;49.956;20.004;2023-03-31T16:23:12;9.60;;;4.20;;
56567;SDS011;42456;49.956;20.004;2023-03-31T16:25:43;9.60;;;4.00;;
56567;SDS011;42456;49.956;20.004;2023-03-31T16:28:15;12.20;;;4.10;;
56567;SDS011;42456;49.956;20.004;2023-03-31T16:30:48;9.50;;;3.60;;
56567;SDS011;42456;49.956;20.004;2023-03-31T16:33:16;9.40;;;4.00;;
56567;SDS011;42456;49.956;20.004;2023-03-31T16:35:46;8.60;;;3.30;;
56567;SDS011;42456;49.956;20.004;2023-03-31T16:38:16;8.90;;;3.60;;
56567;SDS011;42456;49.956;20.004;2023-03-31T16:40:46;8.00;;;3.40;;
56567;SDS011;42456;49.956;20.004;2023-03-31T16:43:19;8.70;;;3.40;;
56567;SDS011;42456;49.956;20.004;2023-03-31T16:45:48;10.60;;;3.70;;
56567;SDS011;42456;49.956;20.004;2023-03-31T16:48:18;9.70;;;3.90;;
56567;SDS011;42456;49.956;20.004;2023-03-31T16:50:47;10.10;;;4.90;;
56567;SDS011;42456;49.956;20.004;2023-03-31T16:53:19;11.40;;;4.20;;
56567;SDS011;42456;49.956;20.004;2023-03-31T16:55:48;7.80;;;3.60;;
56567;SDS011;42456;49.956;20.004;2023-03-31T16:58:15;8.20;;;3.40;;
56567;SDS011;42456;49.956;20.004;2023-03-31T17:00:43;7.90;;;3.00;;
56567;SDS011;42456;49.956;20.004;2023-03-31T17:03:11;7.60;;;3.60;;
56567;SDS011;42456;49.956;20.004;2023-03-31T17:05:40;8.70;;;3.60;;
56567;SDS011;42456;49.956;20.004;2023-03-31T17:08:09;7.00;;;3.20;;
56567;SDS011;42456;49.956;20.004;2023-03-31T17:10:37;10.50;;;3.70;;
56567;SDS011;42456;49.956;20.004;2023-03-31T17:13:06;7.60;;;3.80;;
56567;SDS011;42456;49.956;20.004;2023-03-31T17:15:34;7.90;;;4.10;;
56567;SDS011;42456;49.956;20.004;2023-03-31T17:18:02;9.80;;;3.90;;
56567;SDS011;42456;49.956;20.004;2023-03-31T17:20:30;11.60;;;4.20;;
56567;SDS011;42456;49.956;20.004;2023-03-31T17:22:58;9.50;;;4.00;;
56567;SDS011;42456;49.956;20.004;2023-03-31T17:25:25;10.80;;;4.10;;
56567;SDS011;42456;49.956;20.004;2023-03-31T17:27:52;9.80;;;4.10;;
56567;SDS011;42456;49.956;20.004;2023-03-31T17:30:21;9.40;;;4.60;;
56567;SDS011;42456;49.956;20.004;2023-03-31T17:32:49;9.10;;;4.30;;
56567;SDS011;42456;49.956;20.004;2023-03-31T17:35:18;10.80;;;4.50;;
56567;SDS011;42456;49.956;20.004;2023-03-31T17:37:47;9.30;;;4.80;;
56567;SDS011;42456;49.956;20.004;2023-03-31T17:40:20;10.60;;;4.50;;
56567;SDS011;42456;49.956;20.004;2023-03-31T17:42:48;11.20;;;4.50;;
56567;SDS011;42456;49.956;20.004;2023-03-31T17:45:15;11.50;;;4.70;;
56567;SDS011;42456;49.956;20.004;2023-03-31T17:47:42;19.90;;;10.00;;
56567;SDS011;42456;49.956;20.004;2023-03-31T17:50:10;12.40;;;5.10;;
56567;SDS011;42456;49.956;20.004;2023-03-31T17:52:38;11.60;;;4.80;;
56567;SDS011;42456;49.956;20.004;2023-03-31T17:55:05;8.60;;;4.50;;
56567;SDS011;42456;49.956;20.004;2023-03-31T17:57:32;13.20;;;6.00;;
56567;SDS011;42456;49.956;20.004;2023-03-31T18:00:00;12.70;;;5.40;;
56567;SDS011;42456;49.956;20.004;2023-03-31T18:02:27;13.60;;;5.60;;
56567;SDS011;42456;49.956;20.004;2023-03-31T18:04:54;12.70;;;5.10;;
56567;SDS011;42456;49.956;20.004;2023-03-31T18:07:21;12.40;;;5.20;;
56567;SDS011;42456;49.956;20.004;2023-03-31T18:12:17;14.20;;;5.90;;
56567;SDS011;42456;49.956;20.004;2023-03-31T18:14:44;15.60;;;5.50;;
56567;SDS011;42456;49.956;20.004;2023-03-31T18:17:11;16.30;;;5.60;;
56567;SDS011;42456;49.956;20.004;2023-03-31T18:19:40;13.40;;;4.80;;